Aérodrome :
LOGIN :

S'inscrire | Disclaimer

   EN    FR    IT 

 










Légende :    VFR   VFR Marginal   IFR   IFR Intensif   IFR Très Intensif
Visi : 
Plafond : 
>= 8 km
>= 3000ft
5 à 8 km
1000 à 3000 ft
1500m à 5 km
500 à 1000 ft
800 à 1500m
200 à 500 ft
< 800m
< 200 ft
Symboles :   Orages  Brouillard  Fortes neiges  Fortes précipitations  Vent > 20 kt
SIGMETs :   Divers  Orages  Givrage  Turbulence  Onde Orograph.  Cendres Volcan.







- Altitude de l'aérodrome : 0 ft
- Code IATA : QFR


LIRH - Frosinone Military

DERNIER METAR :
  • 101755Z 32010KT CAVOK 11/02 Q1013

METARs EXPIRÉS :
  • 101655Z 33010KT 9999 FEW040 11/03 Q1012
  • 101555Z 28010KT 9999 FEW040 12/05 Q1011 RMK FEW MON LIB NC VIS MIN 9999 WIND THR16 /////KT BLU

TAF TAF LIRH
Valide du 10 à 15h jusqu'au 11 à 00h UTC


101400Z 1015/1024 31008KT 9999 FEW035
TEMPO 1015/1016 30010G20KT
BECMG 1018/1020 CAVOK
Pas de NOTAMs connus pour ce terrain.
2 SIGMETs publiés pour la FIR Roma (LIRR) :
 
Turbulence forte
LIRR SIGMET 15 VALID 101800/102100 LIIB
LIRR ROMA FIR SEV TURB FCST NE OF LINE N4122 E00754 - N3612 E01411 FL150/350 STNR NC=
Turbulence forte
LIRR SIGMET 14 VALID 101600/101800 LIIB
LIRR ROMA FIR SEV TURB FCST NE OF LINE N4122 E00754 - N3612 E01411 FL150/350 STNR NC=



MET'MAP, la Météo Aéronautique d'un coup d'oeil ! - Copyright ORBIFLY Décembre 2007 - Disclaimer

ORBIFLY MET'MAP TEAM :

Programmation & Développement : Alexandra Zaïnal
Conception & Développement : Baudouin d'Aumeries
Co-Programmation & Développement : Marc-Olivier Méhu
Soutien technique & logistique : Manuel Goepfert

Contact : metmap@orbifly.com




SOURCES & CREDITS :

   NOAA